LOT7TB EPWA-EDDS
Flight info
| Callsign | LOT7TB |
|---|---|
| Flight time | 1h 21m |
| Altitude | 38000 |
| Route | SOXER DCT VAMPU DCT BAXIS DCT UVIVI DCT TOMTI DCT ASTEL DCT RAPET Z93 UNAVI Z715 ANELA N869 DKB Z818 GEBNO T726 LBU |
| Aircraft | B38M/M-SDE1FGHILORVWXY/HB1 |
Departure
| Time | 2026-05-07 17:01 |
|---|---|
| Airport | Warsaw Chopin Airport (EPWA) |
Arrival
| Time | 2026-05-07 18:22 |
|---|---|
| Airport | Stuttgart Airport (EDDS) |
| Time | Latitude | Longitude | Altitude | Speed | Heading |
|---|---|---|---|---|---|
| 2026-05-07 15:59 | 52.16847 | 20.97279 | 352 ft | 0 kts | 75° |
| 2026-05-07 16:50 | 52.16845 | 20.97269 | 352 ft | 4 kts | 75° |
| 2026-05-07 16:51 | 52.16838 | 20.97226 | 352 ft | 4 kts | 74° |
| 2026-05-07 16:51 | 52.16831 | 20.97184 | 359 ft | 4 kts | 77° |
| 2026-05-07 16:51 | 52.16827 | 20.97142 | 357 ft | 4 kts | 98° |
| 2026-05-07 16:51 | 52.16837 | 20.97114 | 361 ft | 3 kts | 153° |
| 2026-05-07 16:52 | 52.16860 | 20.97096 | 362 ft | 3 kts | 152° |
| 2026-05-07 16:52 | 52.16863 | 20.97094 | 360 ft | 1 kts | 152° |
| 2026-05-07 16:56 | 52.16861 | 20.97095 | 359 ft | 1 kts | 152° |
| 2026-05-07 16:56 | 52.16847 | 20.97107 | 359 ft | 3 kts | 152° |
| 2026-05-07 16:56 | 52.16783 | 20.97163 | 355 ft | 8 kts | 152° |
| 2026-05-07 16:57 | 52.16729 | 20.97210 | 352 ft | 10 kts | 152° |
| 2026-05-07 16:57 | 52.16663 | 20.97268 | 357 ft | 12 kts | 152° |
| 2026-05-07 16:57 | 52.16587 | 20.97335 | 352 ft | 7 kts | 147° |
| 2026-05-07 16:57 | 52.16561 | 20.97408 | 352 ft | 8 kts | 114° |
| 2026-05-07 16:58 | 52.16535 | 20.97504 | 353 ft | 10 kts | 114° |
| 2026-05-07 16:58 | 52.16505 | 20.97618 | 354 ft | 12 kts | 114° |
| 2026-05-07 16:58 | 52.16470 | 20.97743 | 356 ft | 13 kts | 116° |
| 2026-05-07 16:58 | 52.16430 | 20.97882 | 359 ft | 14 kts | 114° |
| 2026-05-07 16:59 | 52.16390 | 20.98040 | 354 ft | 16 kts | 115° |
| 2026-05-07 16:59 | 52.16341 | 20.98211 | 356 ft | 18 kts | 115° |
| 2026-05-07 16:59 | 52.16289 | 20.98400 | 358 ft | 16 kts | 114° |
| 2026-05-07 16:59 | 52.16198 | 20.98435 | 355 ft | 16 kts | 202° |
| 2026-05-07 17:00 | 52.16118 | 20.98368 | 361 ft | 7 kts | 230° |
| 2026-05-07 17:00 | 52.16118 | 20.98326 | 358 ft | 3 kts | 301° |
| 2026-05-07 17:00 | 52.16138 | 20.98267 | 358 ft | 14 kts | 296° |
| 2026-05-07 17:00 | 52.16296 | 20.97704 | 356 ft | 95 kts | 294° |
| 2026-05-07 17:01 | 52.16671 | 20.96364 | 359 ft | 160 kts | 292° |
| 2026-05-07 17:01 | 52.17157 | 20.94594 | 838 ft | 180 kts | 297° |
| 2026-05-07 17:01 | 52.17686 | 20.92606 | 1463 ft | 200 kts | 295° |
| 2026-05-07 17:01 | 52.18223 | 20.90545 | 2475 ft | 194 kts | 291° |
| 2026-05-07 17:02 | 52.18502 | 20.88308 | 3048 ft | 213 kts | 270° |
| 2026-05-07 17:02 | 52.18274 | 20.85797 | 3460 ft | 234 kts | 258° |
| 2026-05-07 17:02 | 52.18148 | 20.83149 | 4256 ft | 233 kts | 277° |
| 2026-05-07 17:02 | 52.18321 | 20.80519 | 5021 ft | 237 kts | 263° |
| 2026-05-07 17:03 | 52.17825 | 20.77953 | 5860 ft | 238 kts | 250° |
| 2026-05-07 17:03 | 52.17618 | 20.77013 | 6200 ft | 238 kts | 250° |
| 2026-05-07 17:03 | 52.17088 | 20.74484 | 7051 ft | 240 kts | 251° |
| 2026-05-07 17:03 | 52.16558 | 20.71887 | 7888 ft | 243 kts | 251° |
| 2026-05-07 17:04 | 52.16030 | 20.69258 | 8726 ft | 245 kts | 251° |
| 2026-05-07 17:04 | 52.15501 | 20.66599 | 9558 ft | 248 kts | 252° |
| 2026-05-07 17:04 | 52.14970 | 20.63910 | 10311 ft | 251 kts | 251° |
| 2026-05-07 17:04 | 52.14433 | 20.61177 | 11094 ft | 253 kts | 251° |
| 2026-05-07 17:05 | 52.13884 | 20.58384 | 11640 ft | 268 kts | 250° |
| 2026-05-07 17:05 | 52.13296 | 20.55378 | 11992 ft | 288 kts | 250° |
| 2026-05-07 17:05 | 52.12668 | 20.52167 | 12330 ft | 307 kts | 250° |
| 2026-05-07 17:05 | 52.12008 | 20.48801 | 12832 ft | 318 kts | 250° |
| 2026-05-07 17:06 | 52.11331 | 20.45364 | 13605 ft | 319 kts | 250° |
| 2026-05-07 17:06 | 52.10656 | 20.41942 | 14245 ft | 323 kts | 250° |
| 2026-05-07 17:06 | 52.09964 | 20.38441 | 14885 ft | 327 kts | 250° |
| 2026-05-07 17:06 | 52.09260 | 20.34899 | 15510 ft | 330 kts | 250° |
| 2026-05-07 17:07 | 52.08550 | 20.31327 | 16117 ft | 334 kts | 250° |
| 2026-05-07 17:07 | 52.07831 | 20.27719 | 16721 ft | 337 kts | 249° |
| 2026-05-07 17:07 | 52.07104 | 20.24080 | 17313 ft | 340 kts | 249° |
| 2026-05-07 17:07 | 52.06370 | 20.20409 | 17885 ft | 344 kts | 249° |
| 2026-05-07 17:08 | 52.05626 | 20.16695 | 18431 ft | 347 kts | 249° |
| 2026-05-07 17:08 | 52.04874 | 20.12952 | 18939 ft | 349 kts | 249° |
| 2026-05-07 17:08 | 52.04120 | 20.09202 | 19467 ft | 350 kts | 249° |
| 2026-05-07 17:08 | 52.03361 | 20.05434 | 19977 ft | 351 kts | 249° |
| 2026-05-07 17:09 | 52.02598 | 20.01656 | 20484 ft | 353 kts | 249° |
| 2026-05-07 17:09 | 52.01830 | 19.97862 | 20960 ft | 355 kts | 248° |
| 2026-05-07 17:09 | 52.01055 | 19.94038 | 21499 ft | 357 kts | 248° |
| 2026-05-07 17:09 | 52.00286 | 19.90251 | 21980 ft | 359 kts | 248° |
| 2026-05-07 17:10 | 51.99493 | 19.86352 | 22477 ft | 361 kts | 247° |
| 2026-05-07 17:10 | 51.98715 | 19.82536 | 22987 ft | 363 kts | 247° |
| 2026-05-07 17:10 | 51.97909 | 19.78587 | 23481 ft | 365 kts | 247° |
| 2026-05-07 17:10 | 51.97117 | 19.74717 | 23897 ft | 367 kts | 246° |
| 2026-05-07 17:11 | 51.96307 | 19.70763 | 24320 ft | 370 kts | 246° |
| 2026-05-07 17:11 | 51.95492 | 19.66798 | 24738 ft | 372 kts | 246° |
| 2026-05-07 17:11 | 51.94671 | 19.62810 | 25154 ft | 374 kts | 246° |
| 2026-05-07 17:11 | 51.93843 | 19.58796 | 25562 ft | 377 kts | 246° |
| 2026-05-07 17:12 | 51.93008 | 19.54757 | 25970 ft | 379 kts | 246° |
| 2026-05-07 17:12 | 51.92165 | 19.50688 | 26379 ft | 381 kts | 246° |
| 2026-05-07 17:12 | 51.91317 | 19.46602 | 26771 ft | 384 kts | 246° |
| 2026-05-07 17:12 | 51.90464 | 19.42501 | 27163 ft | 386 kts | 246° |
| 2026-05-07 17:13 | 51.89601 | 19.38361 | 27548 ft | 389 kts | 246° |
| 2026-05-07 17:13 | 51.88731 | 19.34198 | 27923 ft | 391 kts | 246° |
| 2026-05-07 17:13 | 51.87859 | 19.30027 | 28291 ft | 393 kts | 246° |
| 2026-05-07 17:13 | 51.86976 | 19.25818 | 28651 ft | 395 kts | 246° |
| 2026-05-07 17:14 | 51.86100 | 19.21652 | 29000 ft | 398 kts | 246° |
| 2026-05-07 17:14 | 51.85205 | 19.17400 | 29353 ft | 400 kts | 246° |
| 2026-05-07 17:14 | 51.84304 | 19.13134 | 29687 ft | 402 kts | 246° |
| 2026-05-07 17:14 | 51.83396 | 19.08839 | 30033 ft | 404 kts | 246° |
| 2026-05-07 17:15 | 51.82481 | 19.04523 | 30321 ft | 406 kts | 246° |
| 2026-05-07 17:15 | 51.81562 | 19.00196 | 30621 ft | 408 kts | 246° |
| 2026-05-07 17:15 | 51.80638 | 18.95853 | 30923 ft | 410 kts | 246° |
| 2026-05-07 17:15 | 51.79708 | 18.91495 | 31192 ft | 411 kts | 246° |
| 2026-05-07 17:16 | 51.78772 | 18.87114 | 31468 ft | 413 kts | 246° |
| 2026-05-07 17:16 | 51.77829 | 18.82716 | 31744 ft | 415 kts | 246° |
| 2026-05-07 17:16 | 51.76882 | 18.78303 | 32021 ft | 416 kts | 246° |
| 2026-05-07 17:16 | 51.75929 | 18.73878 | 32404 ft | 416 kts | 245° |
| 2026-05-07 17:17 | 51.74978 | 18.69469 | 32838 ft | 414 kts | 245° |
| 2026-05-07 17:17 | 51.74037 | 18.65115 | 33299 ft | 411 kts | 245° |
| 2026-05-07 17:17 | 51.73096 | 18.60769 | 33720 ft | 409 kts | 245° |
| 2026-05-07 17:17 | 51.72157 | 18.56450 | 34087 ft | 407 kts | 245° |
| 2026-05-07 17:18 | 51.71220 | 18.52140 | 34363 ft | 407 kts | 245° |
| 2026-05-07 17:18 | 51.70279 | 18.47824 | 34584 ft | 408 kts | 245° |
| 2026-05-07 17:18 | 51.69334 | 18.43498 | 34814 ft | 409 kts | 245° |
| 2026-05-07 17:18 | 51.68388 | 18.39176 | 35041 ft | 410 kts | 246° |
| 2026-05-07 17:19 | 51.67436 | 18.34836 | 35271 ft | 411 kts | 246° |
| 2026-05-07 17:19 | 51.66493 | 18.30548 | 35481 ft | 412 kts | 246° |
| 2026-05-07 17:19 | 51.65537 | 18.26209 | 35709 ft | 412 kts | 246° |
| 2026-05-07 17:19 | 51.64574 | 18.21844 | 35916 ft | 413 kts | 246° |
| 2026-05-07 17:20 | 51.62640 | 18.13111 | 36031 ft | 414 kts | 246° |
| 2026-05-07 17:20 | 51.60701 | 18.04391 | 36016 ft | 414 kts | 246° |
| 2026-05-07 17:21 | 51.58754 | 17.95671 | 36008 ft | 414 kts | 246° |
| 2026-05-07 17:21 | 51.56802 | 17.86961 | 36008 ft | 414 kts | 246° |
| 2026-05-07 17:22 | 51.54843 | 17.78260 | 36014 ft | 414 kts | 246° |
| 2026-05-07 17:22 | 51.52892 | 17.69629 | 36013 ft | 414 kts | 246° |
| 2026-05-07 17:23 | 51.50921 | 17.60946 | 36011 ft | 414 kts | 246° |
| 2026-05-07 17:23 | 51.48945 | 17.52276 | 36028 ft | 415 kts | 246° |
| 2026-05-07 17:24 | 51.46947 | 17.43546 | 36019 ft | 417 kts | 246° |
| 2026-05-07 17:24 | 51.44941 | 17.34817 | 36010 ft | 417 kts | 246° |
| 2026-05-07 17:25 | 51.42939 | 17.26142 | 36016 ft | 417 kts | 246° |
| 2026-05-07 17:25 | 51.40919 | 17.17424 | 36013 ft | 417 kts | 245° |
| 2026-05-07 17:26 | 51.39236 | 17.10186 | 36012 ft | 417 kts | 245° |
| 2026-05-07 17:26 | 51.37205 | 17.01484 | 36012 ft | 417 kts | 245° |
| 2026-05-07 17:27 | 51.35166 | 16.92782 | 36020 ft | 419 kts | 246° |
| 2026-05-07 17:27 | 51.33107 | 16.84035 | 36014 ft | 420 kts | 246° |
| 2026-05-07 17:28 | 51.31043 | 16.75299 | 36009 ft | 421 kts | 246° |
| 2026-05-07 17:28 | 51.28964 | 16.66533 | 36014 ft | 422 kts | 246° |
| 2026-05-07 17:29 | 51.26875 | 16.57763 | 36011 ft | 422 kts | 246° |
| 2026-05-07 17:29 | 51.24780 | 16.49003 | 36008 ft | 422 kts | 246° |
| 2026-05-07 17:30 | 51.22691 | 16.40308 | 36009 ft | 422 kts | 246° |
| 2026-05-07 17:30 | 51.20576 | 16.31534 | 36007 ft | 425 kts | 246° |
| 2026-05-07 17:31 | 51.18445 | 16.22731 | 36008 ft | 426 kts | 246° |
| 2026-05-07 17:31 | 51.16304 | 16.13921 | 36002 ft | 425 kts | 246° |
| 2026-05-07 17:32 | 51.14160 | 16.05135 | 36001 ft | 426 kts | 246° |
| 2026-05-07 17:32 | 51.12025 | 15.96418 | 36000 ft | 426 kts | 246° |
| 2026-05-07 17:33 | 51.09866 | 15.87642 | 36001 ft | 426 kts | 246° |
| 2026-05-07 17:33 | 51.07701 | 15.78872 | 36015 ft | 426 kts | 246° |
| 2026-05-07 17:34 | 51.05520 | 15.70076 | 36049 ft | 429 kts | 246° |
| 2026-05-07 17:34 | 51.04431 | 15.65689 | 36296 ft | 428 kts | 246° |
| 2026-05-07 17:34 | 51.03331 | 15.61278 | 36477 ft | 430 kts | 246° |
| 2026-05-07 17:35 | 51.02226 | 15.56854 | 36669 ft | 430 kts | 246° |
| 2026-05-07 17:35 | 51.01120 | 15.52432 | 36873 ft | 431 kts | 246° |
| 2026-05-07 17:35 | 51.00011 | 15.48007 | 37068 ft | 431 kts | 246° |
| 2026-05-07 17:35 | 50.98900 | 15.43583 | 37286 ft | 431 kts | 246° |
| 2026-05-07 17:36 | 50.97789 | 15.39170 | 37503 ft | 431 kts | 246° |
| 2026-05-07 17:36 | 50.96677 | 15.34757 | 37711 ft | 431 kts | 246° |
| 2026-05-07 17:36 | 50.95572 | 15.30349 | 37903 ft | 430 kts | 249° |
| 2026-05-07 17:36 | 50.94658 | 15.25817 | 37986 ft | 431 kts | 251° |
| 2026-05-07 17:37 | 50.92837 | 15.16820 | 37995 ft | 431 kts | 250° |
| 2026-05-07 17:37 | 50.90971 | 15.07784 | 37992 ft | 431 kts | 250° |
| 2026-05-07 17:38 | 50.89096 | 14.98760 | 38000 ft | 432 kts | 250° |
| 2026-05-07 17:38 | 50.87213 | 14.89742 | 38011 ft | 431 kts | 250° |
| 2026-05-07 17:39 | 50.85055 | 14.80884 | 38021 ft | 430 kts | 246° |
| 2026-05-07 17:39 | 50.82813 | 14.72115 | 38002 ft | 430 kts | 247° |
| 2026-05-07 17:40 | 50.80574 | 14.63320 | 37994 ft | 432 kts | 247° |
| 2026-05-07 17:40 | 50.78321 | 14.54502 | 38010 ft | 433 kts | 247° |
| 2026-05-07 17:41 | 50.76074 | 14.45737 | 38005 ft | 433 kts | 247° |
| 2026-05-07 17:41 | 50.73803 | 14.36917 | 38006 ft | 433 kts | 246° |
| 2026-05-07 17:42 | 50.71529 | 14.28116 | 38014 ft | 433 kts | 246° |
| 2026-05-07 17:42 | 50.69249 | 14.19325 | 38014 ft | 433 kts | 246° |
| 2026-05-07 17:43 | 50.66959 | 14.10529 | 38035 ft | 433 kts | 247° |
| 2026-05-07 17:43 | 50.64656 | 14.01722 | 38022 ft | 434 kts | 247° |
| 2026-05-07 17:44 | 50.62345 | 13.92920 | 38026 ft | 434 kts | 247° |
| 2026-05-07 17:44 | 50.60043 | 13.84180 | 38016 ft | 434 kts | 246° |
| 2026-05-07 17:45 | 50.57723 | 13.75407 | 38022 ft | 434 kts | 246° |
| 2026-05-07 17:45 | 50.55390 | 13.66619 | 38024 ft | 434 kts | 246° |
| 2026-05-07 17:46 | 50.53055 | 13.57857 | 38020 ft | 434 kts | 246° |
| 2026-05-07 17:46 | 50.50716 | 13.49114 | 38025 ft | 434 kts | 246° |
| 2026-05-07 17:47 | 50.48385 | 13.40431 | 38025 ft | 434 kts | 246° |
| 2026-05-07 17:47 | 50.46030 | 13.31693 | 38025 ft | 434 kts | 246° |
| 2026-05-07 17:48 | 50.43670 | 13.22973 | 38027 ft | 434 kts | 246° |
| 2026-05-07 17:48 | 50.41302 | 13.14253 | 37713 ft | 433 kts | 246° |
| 2026-05-07 17:49 | 50.40121 | 13.09916 | 37454 ft | 433 kts | 246° |
| 2026-05-07 17:49 | 50.38935 | 13.05569 | 37220 ft | 433 kts | 246° |
| 2026-05-07 17:49 | 50.37745 | 13.01214 | 36975 ft | 434 kts | 246° |
| 2026-05-07 17:49 | 50.36554 | 12.96865 | 36734 ft | 435 kts | 246° |
| 2026-05-07 17:50 | 50.35374 | 12.92564 | 36498 ft | 435 kts | 246° |
| 2026-05-07 17:50 | 50.34176 | 12.88206 | 36261 ft | 434 kts | 246° |
| 2026-05-07 17:50 | 50.32982 | 12.83869 | 36022 ft | 434 kts | 246° |
| 2026-05-07 17:50 | 50.31786 | 12.79535 | 35797 ft | 433 kts | 246° |
| 2026-05-07 17:51 | 50.30591 | 12.75211 | 35569 ft | 433 kts | 246° |
| 2026-05-07 17:51 | 50.29399 | 12.70908 | 35338 ft | 432 kts | 246° |
| 2026-05-07 17:51 | 50.28204 | 12.66600 | 35115 ft | 431 kts | 246° |
| 2026-05-07 17:51 | 50.27007 | 12.62293 | 34899 ft | 431 kts | 246° |
| 2026-05-07 17:52 | 50.25816 | 12.58012 | 34671 ft | 430 kts | 246° |
| 2026-05-07 17:52 | 50.24624 | 12.53737 | 34447 ft | 428 kts | 246° |
| 2026-05-07 17:52 | 50.23434 | 12.49472 | 34229 ft | 427 kts | 246° |
| 2026-05-07 17:52 | 50.22247 | 12.45222 | 33999 ft | 427 kts | 247° |
| 2026-05-07 17:53 | 50.21056 | 12.40971 | 33737 ft | 427 kts | 247° |
| 2026-05-07 17:53 | 50.19895 | 12.36805 | 33481 ft | 424 kts | 249° |
| 2026-05-07 17:53 | 50.19163 | 12.32389 | 33182 ft | 420 kts | 265° |
| 2026-05-07 17:53 | 50.19105 | 12.27840 | 32937 ft | 420 kts | 269° |
| 2026-05-07 17:54 | 50.19052 | 12.23264 | 32692 ft | 419 kts | 269° |
| 2026-05-07 17:54 | 50.19014 | 12.18719 | 32425 ft | 418 kts | 270° |
| 2026-05-07 17:54 | 50.18988 | 12.14187 | 32168 ft | 416 kts | 270° |
| 2026-05-07 17:54 | 50.18965 | 12.09684 | 31913 ft | 414 kts | 270° |
| 2026-05-07 17:55 | 50.18943 | 12.05207 | 31666 ft | 412 kts | 270° |
| 2026-05-07 17:55 | 50.18920 | 12.00723 | 31411 ft | 411 kts | 270° |
| 2026-05-07 17:55 | 50.18895 | 11.96276 | 31154 ft | 409 kts | 270° |
| 2026-05-07 17:55 | 50.18869 | 11.91893 | 30904 ft | 408 kts | 270° |
| 2026-05-07 17:56 | 50.18823 | 11.87481 | 30657 ft | 407 kts | 267° |
| 2026-05-07 17:56 | 50.18307 | 11.83142 | 30384 ft | 407 kts | 252° |
| 2026-05-07 17:56 | 50.17065 | 11.79175 | 30164 ft | 409 kts | 237° |
| 2026-05-07 17:56 | 50.15212 | 11.75809 | 30019 ft | 411 kts | 224° |
| 2026-05-07 17:57 | 50.11726 | 11.70723 | 30001 ft | 413 kts | 225° |
| 2026-05-07 17:57 | 50.06885 | 11.63486 | 30025 ft | 413 kts | 225° |
| 2026-05-07 17:58 | 50.02771 | 11.57336 | 30033 ft | 411 kts | 226° |
| 2026-05-07 17:58 | 49.98641 | 11.51178 | 30037 ft | 411 kts | 225° |
| 2026-05-07 17:59 | 49.94514 | 11.45038 | 30037 ft | 411 kts | 225° |
| 2026-05-07 17:59 | 49.90385 | 11.38910 | 29991 ft | 405 kts | 225° |
| 2026-05-07 18:00 | 49.88346 | 11.35893 | 29267 ft | 407 kts | 225° |
| 2026-05-07 18:00 | 49.86301 | 11.32863 | 28564 ft | 408 kts | 225° |
| 2026-05-07 18:00 | 49.84271 | 11.29856 | 27899 ft | 408 kts | 225° |
| 2026-05-07 18:00 | 49.82211 | 11.26813 | 27234 ft | 409 kts | 225° |
| 2026-05-07 18:01 | 49.80151 | 11.23774 | 26585 ft | 409 kts | 225° |
| 2026-05-07 18:01 | 49.78080 | 11.20723 | 25959 ft | 410 kts | 225° |
| 2026-05-07 18:01 | 49.76011 | 11.17680 | 25345 ft | 410 kts | 225° |
| 2026-05-07 18:01 | 49.73943 | 11.14643 | 24724 ft | 410 kts | 225° |
| 2026-05-07 18:02 | 49.69830 | 11.08616 | 23541 ft | 410 kts | 225° |
| 2026-05-07 18:02 | 49.67763 | 11.05591 | 22858 ft | 410 kts | 225° |
| 2026-05-07 18:02 | 49.65692 | 11.02566 | 22184 ft | 409 kts | 225° |
| 2026-05-07 18:03 | 49.63628 | 10.99553 | 21531 ft | 408 kts | 225° |
| 2026-05-07 18:03 | 49.61569 | 10.96553 | 20898 ft | 406 kts | 225° |
| 2026-05-07 18:03 | 49.59516 | 10.93563 | 20309 ft | 404 kts | 226° |
| 2026-05-07 18:03 | 49.57654 | 10.90442 | 20226 ft | 388 kts | 230° |
| 2026-05-07 18:04 | 49.55879 | 10.87401 | 20148 ft | 374 kts | 230° |
| 2026-05-07 18:04 | 49.54152 | 10.84471 | 20128 ft | 367 kts | 230° |
| 2026-05-07 18:04 | 49.52429 | 10.81567 | 20069 ft | 366 kts | 229° |
| 2026-05-07 18:04 | 49.50711 | 10.78683 | 20054 ft | 365 kts | 229° |
| 2026-05-07 18:05 | 49.48997 | 10.75810 | 20061 ft | 364 kts | 229° |
| 2026-05-07 18:05 | 49.47304 | 10.72978 | 20061 ft | 364 kts | 229° |
| 2026-05-07 18:05 | 49.45594 | 10.70120 | 20063 ft | 363 kts | 229° |
| 2026-05-07 18:05 | 49.43885 | 10.67268 | 20067 ft | 362 kts | 229° |
| 2026-05-07 18:06 | 49.42177 | 10.64420 | 20061 ft | 362 kts | 229° |
| 2026-05-07 18:06 | 49.40466 | 10.61570 | 19775 ft | 363 kts | 229° |
| 2026-05-07 18:06 | 49.38765 | 10.58740 | 19442 ft | 359 kts | 229° |
| 2026-05-07 18:06 | 49.37082 | 10.55943 | 19094 ft | 355 kts | 229° |
| 2026-05-07 18:07 | 49.35411 | 10.53169 | 18752 ft | 354 kts | 229° |
| 2026-05-07 18:07 | 49.33738 | 10.50394 | 18396 ft | 353 kts | 229° |
| 2026-05-07 18:07 | 49.32073 | 10.47636 | 17860 ft | 353 kts | 229° |
| 2026-05-07 18:07 | 49.30397 | 10.44864 | 17339 ft | 354 kts | 229° |
| 2026-05-07 18:08 | 49.28745 | 10.42132 | 16830 ft | 354 kts | 229° |
| 2026-05-07 18:08 | 49.27070 | 10.39366 | 16316 ft | 354 kts | 229° |
| 2026-05-07 18:08 | 49.25393 | 10.36600 | 15820 ft | 354 kts | 229° |
| 2026-05-07 18:08 | 49.23718 | 10.33842 | 15332 ft | 354 kts | 229° |
| 2026-05-07 18:09 | 49.22041 | 10.31081 | 14840 ft | 354 kts | 229° |
| 2026-05-07 18:09 | 49.20363 | 10.28323 | 14363 ft | 354 kts | 229° |
| 2026-05-07 18:09 | 49.18691 | 10.25576 | 13906 ft | 354 kts | 229° |
| 2026-05-07 18:09 | 49.17013 | 10.22823 | 13366 ft | 353 kts | 228° |
| 2026-05-07 18:10 | 49.15339 | 10.20080 | 12840 ft | 353 kts | 228° |
| 2026-05-07 18:10 | 49.13666 | 10.17340 | 12329 ft | 353 kts | 228° |
| 2026-05-07 18:10 | 49.11993 | 10.14602 | 11823 ft | 352 kts | 228° |
| 2026-05-07 18:10 | 49.10325 | 10.11877 | 11337 ft | 351 kts | 228° |
| 2026-05-07 18:11 | 49.08672 | 10.09180 | 11109 ft | 342 kts | 228° |
| 2026-05-07 18:11 | 49.07611 | 10.07452 | 11101 ft | 332 kts | 228° |
| 2026-05-07 18:11 | 49.06063 | 10.04930 | 11093 ft | 321 kts | 228° |
| 2026-05-07 18:11 | 49.04044 | 10.01644 | 11058 ft | 320 kts | 228° |
| 2026-05-07 18:12 | 49.03017 | 9.99973 | 11052 ft | 320 kts | 228° |
| 2026-05-07 18:12 | 49.01017 | 9.96725 | 10705 ft | 317 kts | 228° |
| 2026-05-07 18:12 | 48.99999 | 9.95074 | 10302 ft | 314 kts | 228° |
| 2026-05-07 18:12 | 48.98513 | 9.92663 | 9680 ft | 310 kts | 228° |
| 2026-05-07 18:13 | 48.97066 | 9.90319 | 9107 ft | 304 kts | 228° |
| 2026-05-07 18:13 | 48.95642 | 9.88014 | 8710 ft | 296 kts | 228° |
| 2026-05-07 18:13 | 48.94236 | 9.85741 | 8430 ft | 293 kts | 228° |
| 2026-05-07 18:13 | 48.92845 | 9.83492 | 8115 ft | 290 kts | 228° |
| 2026-05-07 18:14 | 48.91470 | 9.81274 | 7811 ft | 286 kts | 228° |
| 2026-05-07 18:14 | 48.90127 | 9.79108 | 7479 ft | 276 kts | 229° |
| 2026-05-07 18:14 | 48.88841 | 9.77035 | 7172 ft | 265 kts | 228° |
| 2026-05-07 18:14 | 48.87602 | 9.75041 | 6906 ft | 254 kts | 229° |
| 2026-05-07 18:15 | 48.86413 | 9.73129 | 6628 ft | 244 kts | 229° |
| 2026-05-07 18:15 | 48.85271 | 9.71289 | 6367 ft | 238 kts | 229° |
| 2026-05-07 18:15 | 48.84135 | 9.69465 | 6146 ft | 236 kts | 229° |
| 2026-05-07 18:15 | 48.83012 | 9.67663 | 5890 ft | 235 kts | 229° |
| 2026-05-07 18:16 | 48.81888 | 9.65858 | 5612 ft | 234 kts | 229° |
| 2026-05-07 18:16 | 48.80776 | 9.64076 | 5412 ft | 232 kts | 229° |
| 2026-05-07 18:16 | 48.79665 | 9.62294 | 5296 ft | 232 kts | 228° |
| 2026-05-07 18:16 | 48.78553 | 9.60513 | 5188 ft | 232 kts | 228° |
| 2026-05-07 18:17 | 48.77442 | 9.58738 | 5063 ft | 232 kts | 228° |
| 2026-05-07 18:17 | 48.76332 | 9.56961 | 4946 ft | 232 kts | 229° |
| 2026-05-07 18:17 | 48.75308 | 9.55092 | 4804 ft | 230 kts | 242° |
| 2026-05-07 18:17 | 48.74742 | 9.52871 | 4652 ft | 224 kts | 257° |
| 2026-05-07 18:18 | 48.74352 | 9.50620 | 4500 ft | 216 kts | 256° |
| 2026-05-07 18:18 | 48.73960 | 9.48495 | 4350 ft | 208 kts | 256° |
| 2026-05-07 18:18 | 48.73566 | 9.46403 | 4116 ft | 205 kts | 256° |
| 2026-05-07 18:18 | 48.73176 | 9.44337 | 3870 ft | 203 kts | 255° |
| 2026-05-07 18:19 | 48.72790 | 9.42293 | 3606 ft | 198 kts | 256° |
| 2026-05-07 18:19 | 48.72418 | 9.40329 | 3378 ft | 192 kts | 256° |
| 2026-05-07 18:19 | 48.72056 | 9.38415 | 3115 ft | 187 kts | 256° |
| 2026-05-07 18:19 | 48.71703 | 9.36536 | 2865 ft | 183 kts | 256° |
| 2026-05-07 18:20 | 48.71362 | 9.34746 | 2655 ft | 167 kts | 256° |
| 2026-05-07 18:20 | 48.71054 | 9.33121 | 2432 ft | 152 kts | 257° |
| 2026-05-07 18:20 | 48.70781 | 9.31660 | 2272 ft | 142 kts | 258° |
| 2026-05-07 18:20 | 48.70528 | 9.30215 | 2050 ft | 141 kts | 256° |
| 2026-05-07 18:21 | 48.70230 | 9.28804 | 1831 ft | 141 kts | 253° |
| 2026-05-07 18:21 | 48.69963 | 9.27390 | 1632 ft | 139 kts | 258° |
| 2026-05-07 18:21 | 48.69706 | 9.26005 | 1439 ft | 137 kts | 257° |
| 2026-05-07 18:21 | 48.69445 | 9.24611 | 1266 ft | 138 kts | 256° |
| 2026-05-07 18:22 | 48.69197 | 9.23293 | 1214 ft | 116 kts | 254° |
| 2026-05-07 18:22 | 48.69075 | 9.22657 | 1226 ft | 76 kts | 254° |
| 2026-05-07 18:22 | 48.68944 | 9.21803 | 1248 ft | 24 kts | 271° |
| 2026-05-07 18:22 | 48.68969 | 9.21570 | 1256 ft | 21 kts | 285° |
| 2026-05-07 18:23 | 48.69001 | 9.21376 | 1262 ft | 17 kts | 274° |
| 2026-05-07 18:23 | 48.68977 | 9.21211 | 1266 ft | 16 kts | 254° |
| 2026-05-07 18:23 | 48.68947 | 9.21055 | 1269 ft | 15 kts | 254° |
| 2026-05-07 18:23 | 48.68919 | 9.20909 | 1273 ft | 14 kts | 254° |
| 2026-05-07 18:24 | 48.68893 | 9.20769 | 1276 ft | 13 kts | 254° |
| 2026-05-07 18:24 | 48.68869 | 9.20645 | 1280 ft | 13 kts | 253° |
| 2026-05-07 18:24 | 48.68845 | 9.20519 | 1284 ft | 12 kts | 253° |
| 2026-05-07 18:24 | 48.68823 | 9.20405 | 1285 ft | 11 kts | 253° |
| 2026-05-07 18:25 | 48.68802 | 9.20296 | 1287 ft | 11 kts | 254° |
| 2026-05-07 18:25 | 48.68783 | 9.20195 | 1289 ft | 10 kts | 254° |
| 2026-05-07 18:25 | 48.68766 | 9.20100 | 1291 ft | 9 kts | 254° |
| 2026-05-07 18:25 | 48.68758 | 9.20017 | 1293 ft | 7 kts | 285° |
| 2026-05-07 18:26 | 48.68777 | 9.19976 | 1296 ft | 3 kts | 312° |
| 2026-05-07 18:26 | 48.68794 | 9.19950 | 1297 ft | 6 kts | 313° |
| 2026-05-07 18:26 | 48.68844 | 9.19897 | 1302 ft | 10 kts | 340° |
| 2026-05-07 18:26 | 48.68890 | 9.19848 | 1306 ft | 6 kts | 286° |
| 2026-05-07 18:27 | 48.68884 | 9.19787 | 1307 ft | 7 kts | 253° |
| 2026-05-07 18:27 | 48.68868 | 9.19706 | 1310 ft | 8 kts | 255° |
| 2026-05-07 18:27 | 48.68853 | 9.19624 | 1311 ft | 8 kts | 253° |
| 2026-05-07 18:27 | 48.68842 | 9.19565 | 1313 ft | 2 kts | 264° |
| 2026-05-07 18:28 | 48.68846 | 9.19551 | 1313 ft | 3 kts | 300° |
| 2026-05-07 18:28 | 48.68877 | 9.19529 | 1315 ft | 6 kts | 344° |
| 2026-05-07 18:28 | 48.68907 | 9.19516 | 1317 ft | 2 kts | 344° |
| 2026-05-07 18:28 | 48.68910 | 9.19515 | 1317 ft | 0 kts | 344° |